sensor_id;sensor_type;location;lat;lon;timestamp;P1;durP1;ratioP1;P2;durP2;ratioP2
22030;SDS011;11179;52.106;21.024;2024-01-07T00:00:57;24.17;;;11.27;;
22030;SDS011;11179;52.106;21.024;2024-01-07T00:03:23;23.27;;;11.00;;
22030;SDS011;11179;52.106;21.024;2024-01-07T00:05:48;27.70;;;12.43;;
22030;SDS011;11179;52.106;21.024;2024-01-07T00:08:13;26.90;;;12.63;;
22030;SDS011;11179;52.106;21.024;2024-01-07T00:10:38;25.77;;;12.80;;
22030;SDS011;11179;52.106;21.024;2024-01-07T00:13:04;33.13;;;14.00;;
22030;SDS011;11179;52.106;21.024;2024-01-07T00:15:29;27.40;;;11.50;;
22030;SDS011;11179;52.106;21.024;2024-01-07T00:17:54;28.93;;;15.00;;
22030;SDS011;11179;52.106;21.024;2024-01-07T00:20:20;26.60;;;12.67;;
22030;SDS011;11179;52.106;21.024;2024-01-07T00:22:45;26.23;;;12.80;;
22030;SDS011;11179;52.106;21.024;2024-01-07T00:25:11;28.23;;;13.90;;
22030;SDS011;11179;52.106;21.024;2024-01-07T00:27:36;29.07;;;12.83;;
22030;SDS011;11179;52.106;21.024;2024-01-07T00:30:01;29.50;;;14.67;;
22030;SDS011;11179;52.106;21.024;2024-01-07T00:32:27;32.03;;;13.47;;
22030;SDS011;11179;52.106;21.024;2024-01-07T00:34:52;33.30;;;14.57;;
22030;SDS011;11179;52.106;21.024;2024-01-07T00:37:18;30.83;;;13.83;;
22030;SDS011;11179;52.106;21.024;2024-01-07T00:39:43;32.73;;;13.80;;
22030;SDS011;11179;52.106;21.024;2024-01-07T00:42:10;30.17;;;13.35;;
22030;SDS011;11179;52.106;21.024;2024-01-07T00:44:36;29.47;;;14.57;;
22030;SDS011;11179;52.106;21.024;2024-01-07T00:47:02;29.55;;;15.25;;
22030;SDS011;11179;52.106;21.024;2024-01-07T00:49:28;29.00;;;12.77;;
22030;SDS011;11179;52.106;21.024;2024-01-07T00:51:53;31.93;;;15.87;;
22030;SDS011;11179;52.106;21.024;2024-01-07T00:54:18;29.90;;;12.00;;
22030;SDS011;11179;52.106;21.024;2024-01-07T00:56:44;25.67;;;13.60;;
22030;SDS011;11179;52.106;21.024;2024-01-07T00:59:10;26.38;;;14.48;;
22030;SDS011;11179;52.106;21.024;2024-01-07T01:01:35;27.10;;;12.20;;
22030;SDS011;11179;52.106;21.024;2024-01-07T01:04:01;26.60;;;13.03;;
22030;SDS011;11179;52.106;21.024;2024-01-07T01:06:26;29.20;;;13.83;;
22030;SDS011;11179;52.106;21.024;2024-01-07T01:08:51;26.60;;;13.53;;
22030;SDS011;11179;52.106;21.024;2024-01-07T01:11:17;29.73;;;14.20;;
22030;SDS011;11179;52.106;21.024;2024-01-07T01:13:42;32.23;;;14.63;;
22030;SDS011;11179;52.106;21.024;2024-01-07T01:16:07;33.57;;;15.10;;
22030;SDS011;11179;52.106;21.024;2024-01-07T01:18:33;28.73;;;13.57;;
22030;SDS011;11179;52.106;21.024;2024-01-07T01:20:58;25.50;;;12.90;;
22030;SDS011;11179;52.106;21.024;2024-01-07T01:23:23;25.73;;;12.70;;
22030;SDS011;11179;52.106;21.024;2024-01-07T01:25:48;28.23;;;14.20;;
22030;SDS011;11179;52.106;21.024;2024-01-07T01:28:14;28.63;;;12.40;;
22030;SDS011;11179;52.106;21.024;2024-01-07T01:30:39;23.17;;;12.23;;
22030;SDS011;11179;52.106;21.024;2024-01-07T01:33:06;30.40;;;13.93;;
22030;SDS011;11179;52.106;21.024;2024-01-07T01:35:31;30.03;;;14.20;;
22030;SDS011;11179;52.106;21.024;2024-01-07T01:37:57;23.33;;;12.70;;
22030;SDS011;11179;52.106;21.024;2024-01-07T01:40:22;27.97;;;13.70;;
22030;SDS011;11179;52.106;21.024;2024-01-07T01:42:47;28.53;;;13.07;;
22030;SDS011;11179;52.106;21.024;2024-01-07T01:45:15;20.65;;;10.93;;
22030;SDS011;11179;52.106;21.024;2024-01-07T01:47:41;22.90;;;10.77;;
22030;SDS011;11179;52.106;21.024;2024-01-07T01:50:07;24.33;;;11.80;;
22030;SDS011;11179;52.106;21.024;2024-01-07T01:52:33;28.13;;;13.13;;
22030;SDS011;11179;52.106;21.024;2024-01-07T01:55:00;24.98;;;12.65;;
22030;SDS011;11179;52.106;21.024;2024-01-07T01:57:28;28.03;;;13.93;;
22030;SDS011;11179;52.106;21.024;2024-01-07T01:59:57;27.35;;;11.85;;
22030;SDS011;11179;52.106;21.024;2024-01-07T02:02:27;24.75;;;12.50;;
22030;SDS011;11179;52.106;21.024;2024-01-07T02:04:52;29.40;;;11.97;;
22030;SDS011;11179;52.106;21.024;2024-01-07T02:07:18;21.23;;;11.17;;
22030;SDS011;11179;52.106;21.024;2024-01-07T02:09:43;22.60;;;11.80;;
22030;SDS011;11179;52.106;21.024;2024-01-07T02:12:09;22.20;;;11.37;;
22030;SDS011;11179;52.106;21.024;2024-01-07T02:14:36;24.10;;;11.35;;
22030;SDS011;11179;52.106;21.024;2024-01-07T02:17:02;21.20;;;11.33;;
22030;SDS011;11179;52.106;21.024;2024-01-07T02:19:28;23.70;;;12.00;;
22030;SDS011;11179;52.106;21.024;2024-01-07T02:21:53;22.43;;;10.10;;
22030;SDS011;11179;52.106;21.024;2024-01-07T02:24:18;24.00;;;12.40;;
22030;SDS011;11179;52.106;21.024;2024-01-07T02:26:44;22.73;;;11.03;;
22030;SDS011;11179;52.106;21.024;2024-01-07T02:29:09;22.10;;;10.20;;
22030;SDS011;11179;52.106;21.024;2024-01-07T02:31:34;23.73;;;11.63;;
22030;SDS011;11179;52.106;21.024;2024-01-07T02:34:00;26.27;;;11.90;;
22030;SDS011;11179;52.106;21.024;2024-01-07T02:36:25;21.20;;;10.13;;
22030;SDS011;11179;52.106;21.024;2024-01-07T02:38:50;24.70;;;9.50;;
22030;SDS011;11179;52.106;21.024;2024-01-07T02:41:16;23.40;;;10.40;;
22030;SDS011;11179;52.106;21.024;2024-01-07T02:43:41;22.10;;;10.57;;
22030;SDS011;11179;52.106;21.024;2024-01-07T02:46:07;19.40;;;9.70;;
22030;SDS011;11179;52.106;21.024;2024-01-07T02:48:32;22.63;;;10.75;;
22030;SDS011;11179;52.106;21.024;2024-01-07T02:50:57;20.60;;;10.17;;
22030;SDS011;11179;52.106;21.024;2024-01-07T02:53:23;21.77;;;9.00;;
22030;SDS011;11179;52.106;21.024;2024-01-07T02:55:48;23.20;;;11.10;;
22030;SDS011;11179;52.106;21.024;2024-01-07T02:58:13;22.63;;;11.00;;
22030;SDS011;11179;52.106;21.024;2024-01-07T03:00:39;24.30;;;10.63;;
22030;SDS011;11179;52.106;21.024;2024-01-07T03:03:04;21.20;;;10.37;;
22030;SDS011;11179;52.106;21.024;2024-01-07T03:05:29;22.83;;;11.07;;
22030;SDS011;11179;52.106;21.024;2024-01-07T03:07:57;23.30;;;11.25;;
22030;SDS011;11179;52.106;21.024;2024-01-07T03:10:24;24.45;;;12.02;;
22030;SDS011;11179;52.106;21.024;2024-01-07T03:12:49;23.13;;;10.97;;
22030;SDS011;11179;52.106;21.024;2024-01-07T03:15:14;21.90;;;11.40;;
22030;SDS011;11179;52.106;21.024;2024-01-07T03:17:40;23.47;;;11.50;;
22030;SDS011;11179;52.106;21.024;2024-01-07T03:20:05;18.77;;;8.80;;
22030;SDS011;11179;52.106;21.024;2024-01-07T03:22:31;22.60;;;12.23;;
22030;SDS011;11179;52.106;21.024;2024-01-07T03:24:56;23.33;;;11.10;;
22030;SDS011;11179;52.106;21.024;2024-01-07T03:27:22;25.40;;;12.43;;
22030;SDS011;11179;52.106;21.024;2024-01-07T03:29:47;25.47;;;12.27;;
22030;SDS011;11179;52.106;21.024;2024-01-07T03:32:12;21.60;;;10.13;;
22030;SDS011;11179;52.106;21.024;2024-01-07T03:34:38;20.10;;;10.87;;
22030;SDS011;11179;52.106;21.024;2024-01-07T03:37:04;22.50;;;11.57;;
22030;SDS011;11179;52.106;21.024;2024-01-07T03:39:32;25.63;;;11.70;;
22030;SDS011;11179;52.106;21.024;2024-01-07T03:41:58;27.25;;;11.00;;
22030;SDS011;11179;52.106;21.024;2024-01-07T03:44:23;20.70;;;10.67;;
22030;SDS011;11179;52.106;21.024;2024-01-07T03:46:48;20.00;;;10.13;;
22030;SDS011;11179;52.106;21.024;2024-01-07T03:49:14;21.87;;;10.23;;
22030;SDS011;11179;52.106;21.024;2024-01-07T03:51:39;19.33;;;10.43;;
22030;SDS011;11179;52.106;21.024;2024-01-07T03:54:04;17.53;;;9.17;;
22030;SDS011;11179;52.106;21.024;2024-01-07T03:56:30;17.27;;;8.70;;
22030;SDS011;11179;52.106;21.024;2024-01-07T03:58:56;24.90;;;11.13;;
22030;SDS011;11179;52.106;21.024;2024-01-07T04:01:21;21.30;;;11.60;;
22030;SDS011;11179;52.106;21.024;2024-01-07T04:03:46;24.17;;;10.60;;
22030;SDS011;11179;52.106;21.024;2024-01-07T04:06:12;23.07;;;10.80;;
22030;SDS011;11179;52.106;21.024;2024-01-07T04:08:37;20.30;;;10.23;;
22030;SDS011;11179;52.106;21.024;2024-01-07T04:11:02;20.23;;;10.10;;
22030;SDS011;11179;52.106;21.024;2024-01-07T04:13:28;17.40;;;9.70;;
22030;SDS011;11179;52.106;21.024;2024-01-07T04:15:53;20.27;;;9.20;;
22030;SDS011;11179;52.106;21.024;2024-01-07T04:18:18;23.30;;;12.07;;
22030;SDS011;11179;52.106;21.024;2024-01-07T04:20:44;19.23;;;8.30;;
22030;SDS011;11179;52.106;21.024;2024-01-07T04:23:09;19.00;;;11.10;;
22030;SDS011;11179;52.106;21.024;2024-01-07T04:25:34;20.60;;;10.03;;
22030;SDS011;11179;52.106;21.024;2024-01-07T04:28:00;19.80;;;10.10;;
22030;SDS011;11179;52.106;21.024;2024-01-07T04:30:25;21.03;;;9.83;;
22030;SDS011;11179;52.106;21.024;2024-01-07T04:32:51;20.13;;;10.00;;
22030;SDS011;11179;52.106;21.024;2024-01-07T04:35:16;19.03;;;10.07;;
22030;SDS011;11179;52.106;21.024;2024-01-07T04:37:41;21.07;;;9.47;;
22030;SDS011;11179;52.106;21.024;2024-01-07T04:40:07;20.53;;;10.07;;
22030;SDS011;11179;52.106;21.024;2024-01-07T04:42:33;21.77;;;9.73;;
22030;SDS011;11179;52.106;21.024;2024-01-07T04:44:59;21.70;;;9.53;;
22030;SDS011;11179;52.106;21.024;2024-01-07T04:49:56;19.42;;;10.00;;
22030;SDS011;11179;52.106;21.024;2024-01-07T04:52:22;20.63;;;11.15;;
22030;SDS011;11179;52.106;21.024;2024-01-07T04:54:49;20.57;;;10.87;;
22030;SDS011;11179;52.106;21.024;2024-01-07T04:57:18;19.70;;;10.80;;
22030;SDS011;11179;52.106;21.024;2024-01-07T04:59:43;22.03;;;10.70;;
22030;SDS011;11179;52.106;21.024;2024-01-07T05:02:10;17.88;;;9.70;;
22030;SDS011;11179;52.106;21.024;2024-01-07T05:04:35;20.67;;;10.90;;
22030;SDS011;11179;52.106;21.024;2024-01-07T05:07:00;22.40;;;11.20;;
22030;SDS011;11179;52.106;21.024;2024-01-07T05:09:26;19.73;;;10.40;;
22030;SDS011;11179;52.106;21.024;2024-01-07T05:11:51;25.10;;;10.07;;
22030;SDS011;11179;52.106;21.024;2024-01-07T05:14:16;20.30;;;9.60;;
22030;SDS011;11179;52.106;21.024;2024-01-07T05:16:42;24.27;;;10.17;;
22030;SDS011;11179;52.106;21.024;2024-01-07T05:19:07;19.57;;;10.20;;
22030;SDS011;11179;52.106;21.024;2024-01-07T05:21:32;19.60;;;10.13;;
22030;SDS011;11179;52.106;21.024;2024-01-07T05:23:58;25.40;;;11.07;;
22030;SDS011;11179;52.106;21.024;2024-01-07T05:26:23;20.27;;;11.40;;
22030;SDS011;11179;52.106;21.024;2024-01-07T05:28:48;27.53;;;11.87;;
22030;SDS011;11179;52.106;21.024;2024-01-07T05:31:14;22.27;;;10.50;;
22030;SDS011;11179;52.106;21.024;2024-01-07T05:33:40;20.05;;;10.95;;
22030;SDS011;11179;52.106;21.024;2024-01-07T05:36:06;20.83;;;11.00;;
22030;SDS011;11179;52.106;21.024;2024-01-07T05:38:31;21.00;;;10.77;;
22030;SDS011;11179;52.106;21.024;2024-01-07T05:40:57;28.30;;;11.43;;
22030;SDS011;11179;52.106;21.024;2024-01-07T05:43:22;29.70;;;13.90;;
22030;SDS011;11179;52.106;21.024;2024-01-07T05:45:47;18.47;;;10.67;;
22030;SDS011;11179;52.106;21.024;2024-01-07T05:48:12;23.60;;;12.03;;
22030;SDS011;11179;52.106;21.024;2024-01-07T05:50:38;21.63;;;11.37;;
22030;SDS011;11179;52.106;21.024;2024-01-07T05:53:03;22.93;;;11.30;;
22030;SDS011;11179;52.106;21.024;2024-01-07T05:55:29;18.00;;;10.00;;
22030;SDS011;11179;52.106;21.024;2024-01-07T05:57:54;22.43;;;11.20;;
22030;SDS011;11179;52.106;21.024;2024-01-07T06:00:19;18.23;;;10.17;;
22030;SDS011;11179;52.106;21.024;2024-01-07T06:02:45;19.73;;;10.43;;
22030;SDS011;11179;52.106;21.024;2024-01-07T06:05:10;21.57;;;10.60;;
22030;SDS011;11179;52.106;21.024;2024-01-07T06:07:35;24.50;;;11.60;;
22030;SDS011;11179;52.106;21.024;2024-01-07T06:10:01;25.93;;;10.90;;
22030;SDS011;11179;52.106;21.024;2024-01-07T06:12:27;21.35;;;9.82;;
22030;SDS011;11179;52.106;21.024;2024-01-07T06:14:52;20.40;;;11.10;;
22030;SDS011;11179;52.106;21.024;2024-01-07T06:17:18;19.93;;;10.60;;
22030;SDS011;11179;52.106;21.024;2024-01-07T06:19:43;25.03;;;11.00;;
22030;SDS011;11179;52.106;21.024;2024-01-07T06:22:09;24.27;;;11.00;;
22030;SDS011;11179;52.106;21.024;2024-01-07T06:24:34;19.17;;;10.40;;
22030;SDS011;11179;52.106;21.024;2024-01-07T06:26:59;19.90;;;9.87;;
22030;SDS011;11179;52.106;21.024;2024-01-07T06:29:24;21.20;;;11.53;;
22030;SDS011;11179;52.106;21.024;2024-01-07T06:31:50;20.90;;;10.43;;
22030;SDS011;11179;52.106;21.024;2024-01-07T06:34:15;18.23;;;10.57;;
22030;SDS011;11179;52.106;21.024;2024-01-07T06:36:40;18.10;;;9.13;;
22030;SDS011;11179;52.106;21.024;2024-01-07T06:39:06;18.30;;;10.13;;
22030;SDS011;11179;52.106;21.024;2024-01-07T06:41:32;20.75;;;10.90;;
22030;SDS011;11179;52.106;21.024;2024-01-07T06:43:58;26.17;;;11.33;;
22030;SDS011;11179;52.106;21.024;2024-01-07T06:46:23;21.03;;;10.57;;
22030;SDS011;11179;52.106;21.024;2024-01-07T06:48:49;21.33;;;10.93;;
22030;SDS011;11179;52.106;21.024;2024-01-07T06:51:14;18.80;;;10.10;;
22030;SDS011;11179;52.106;21.024;2024-01-07T06:53:40;20.60;;;10.43;;
22030;SDS011;11179;52.106;21.024;2024-01-07T06:56:05;22.63;;;11.70;;
22030;SDS011;11179;52.106;21.024;2024-01-07T06:58:30;23.47;;;11.17;;
22030;SDS011;11179;52.106;21.024;2024-01-07T07:00:57;19.73;;;10.45;;
22030;SDS011;11179;52.106;21.024;2024-01-07T07:03:22;20.97;;;11.20;;
22030;SDS011;11179;52.106;21.024;2024-01-07T07:05:48;21.73;;;10.73;;
22030;SDS011;11179;52.106;21.024;2024-01-07T07:08:13;23.17;;;11.07;;
22030;SDS011;11179;52.106;21.024;2024-01-07T07:10:38;19.80;;;11.03;;
22030;SDS011;11179;52.106;21.024;2024-01-07T07:13:04;19.20;;;10.67;;
22030;SDS011;11179;52.106;21.024;2024-01-07T07:15:29;18.40;;;10.20;;
22030;SDS011;11179;52.106;21.024;2024-01-07T07:17:55;21.63;;;11.10;;
22030;SDS011;11179;52.106;21.024;2024-01-07T07:20:20;18.55;;;10.10;;
22030;SDS011;11179;52.106;21.024;2024-01-07T07:22:46;21.60;;;10.10;;
22030;SDS011;11179;52.106;21.024;2024-01-07T07:25:11;20.00;;;10.53;;
22030;SDS011;11179;52.106;21.024;2024-01-07T07:27:36;20.00;;;10.63;;
22030;SDS011;11179;52.106;21.024;2024-01-07T07:30:03;19.97;;;9.83;;
22030;SDS011;11179;52.106;21.024;2024-01-07T07:32:29;18.92;;;10.02;;
22030;SDS011;11179;52.106;21.024;2024-01-07T07:34:54;16.17;;;8.97;;
22030;SDS011;11179;52.106;21.024;2024-01-07T07:37:20;21.73;;;10.27;;
22030;SDS011;11179;52.106;21.024;2024-01-07T07:39:45;21.07;;;10.43;;
22030;SDS011;11179;52.106;21.024;2024-01-07T07:42:10;21.00;;;9.97;;
22030;SDS011;11179;52.106;21.024;2024-01-07T07:44:36;20.40;;;10.73;;
22030;SDS011;11179;52.106;21.024;2024-01-07T07:47:01;17.00;;;9.97;;
22030;SDS011;11179;52.106;21.024;2024-01-07T07:49:26;21.93;;;10.40;;
22030;SDS011;11179;52.106;21.024;2024-01-07T07:51:52;19.20;;;10.43;;
22030;SDS011;11179;52.106;21.024;2024-01-07T07:54:17;21.47;;;9.73;;
22030;SDS011;11179;52.106;21.024;2024-01-07T07:56:42;19.10;;;10.33;;
22030;SDS011;11179;52.106;21.024;2024-01-07T07:59:08;19.27;;;10.50;;
22030;SDS011;11179;52.106;21.024;2024-01-07T08:01:34;17.73;;;10.27;;
22030;SDS011;11179;52.106;21.024;2024-01-07T08:03:59;19.47;;;10.90;;
22030;SDS011;11179;52.106;21.024;2024-01-07T08:06:24;19.93;;;10.33;;
22030;SDS011;11179;52.106;21.024;2024-01-07T08:08:50;20.27;;;8.90;;
22030;SDS011;11179;52.106;21.024;2024-01-07T08:11:15;19.87;;;10.77;;
22030;SDS011;11179;52.106;21.024;2024-01-07T08:13:40;20.63;;;10.70;;
22030;SDS011;11179;52.106;21.024;2024-01-07T08:16:06;18.80;;;10.57;;
22030;SDS011;11179;52.106;21.024;2024-01-07T08:18:32;18.33;;;9.25;;
22030;SDS011;11179;52.106;21.024;2024-01-07T08:20:58;23.53;;;9.60;;
22030;SDS011;11179;52.106;21.024;2024-01-07T08:23:24;22.67;;;11.20;;
22030;SDS011;11179;52.106;21.024;2024-01-07T08:25:49;18.80;;;10.80;;
22030;SDS011;11179;52.106;21.024;2024-01-07T08:28:16;20.92;;;9.93;;
22030;SDS011;11179;52.106;21.024;2024-01-07T08:30:41;19.13;;;10.27;;
22030;SDS011;11179;52.106;21.024;2024-01-07T08:33:07;16.70;;;9.60;;
22030;SDS011;11179;52.106;21.024;2024-01-07T08:35:32;19.43;;;10.13;;
22030;SDS011;11179;52.106;21.024;2024-01-07T08:37:57;18.97;;;9.90;;
22030;SDS011;11179;52.106;21.024;2024-01-07T08:40:23;19.40;;;9.97;;
22030;SDS011;11179;52.106;21.024;2024-01-07T08:42:49;20.02;;;9.90;;
22030;SDS011;11179;52.106;21.024;2024-01-07T08:45:14;21.87;;;10.60;;
22030;SDS011;11179;52.106;21.024;2024-01-07T08:47:40;24.40;;;10.53;;
22030;SDS011;11179;52.106;21.024;2024-01-07T08:50:05;21.73;;;11.03;;
22030;SDS011;11179;52.106;21.024;2024-01-07T08:52:32;20.95;;;10.02;;
22030;SDS011;11179;52.106;21.024;2024-01-07T08:55:00;24.00;;;11.38;;
22030;SDS011;11179;52.106;21.024;2024-01-07T08:57:26;21.17;;;11.87;;
22030;SDS011;11179;52.106;21.024;2024-01-07T08:59:51;21.63;;;10.90;;
22030;SDS011;11179;52.106;21.024;2024-01-07T09:02:19;18.83;;;10.40;;
22030;SDS011;11179;52.106;21.024;2024-01-07T09:04:45;23.95;;;10.65;;
22030;SDS011;11179;52.106;21.024;2024-01-07T09:07:10;18.67;;;10.20;;
22030;SDS011;11179;52.106;21.024;2024-01-07T09:09:35;18.20;;;10.17;;
22030;SDS011;11179;52.106;21.024;2024-01-07T09:12:01;21.53;;;10.17;;
22030;SDS011;11179;52.106;21.024;2024-01-07T09:14:26;18.83;;;10.00;;
22030;SDS011;11179;52.106;21.024;2024-01-07T09:16:51;20.20;;;11.37;;
22030;SDS011;11179;52.106;21.024;2024-01-07T09:19:18;27.75;;;11.05;;
22030;SDS011;11179;52.106;21.024;2024-01-07T09:21:43;20.60;;;9.90;;
22030;SDS011;11179;52.106;21.024;2024-01-07T09:24:09;19.03;;;8.90;;
22030;SDS011;11179;52.106;21.024;2024-01-07T09:26:34;16.37;;;8.77;;
22030;SDS011;11179;52.106;21.024;2024-01-07T09:28:59;18.30;;;7.80;;
22030;SDS011;11179;52.106;21.024;2024-01-07T09:31:26;14.35;;;7.07;;
22030;SDS011;11179;52.106;21.024;2024-01-07T09:33:51;14.80;;;7.90;;
22030;SDS011;11179;52.106;21.024;2024-01-07T09:36:19;15.88;;;8.65;;
22030;SDS011;11179;52.106;21.024;2024-01-07T09:38:44;15.43;;;7.70;;
22030;SDS011;11179;52.106;21.024;2024-01-07T09:41:09;17.90;;;9.80;;
22030;SDS011;11179;52.106;21.024;2024-01-07T09:43:35;19.37;;;10.00;;
22030;SDS011;11179;52.106;21.024;2024-01-07T09:46:02;18.80;;;11.13;;
22030;SDS011;11179;52.106;21.024;2024-01-07T09:48:28;19.38;;;10.05;;
22030;SDS011;11179;52.106;21.024;2024-01-07T09:50:53;19.53;;;9.77;;
22030;SDS011;11179;52.106;21.024;2024-01-07T09:53:21;20.85;;;10.70;;
22030;SDS011;11179;52.106;21.024;2024-01-07T09:55:58;20.17;;;10.77;;
22030;SDS011;11179;52.106;21.024;2024-01-07T09:58:31;22.92;;;10.95;;
22030;SDS011;11179;52.106;21.024;2024-01-07T10:00:56;20.70;;;9.60;;
22030;SDS011;11179;52.106;21.024;2024-01-07T10:03:22;23.67;;;11.23;;
22030;SDS011;11179;52.106;21.024;2024-01-07T10:05:47;22.30;;;9.77;;
22030;SDS011;11179;52.106;21.024;2024-01-07T10:08:13;16.77;;;9.67;;
22030;SDS011;11179;52.106;21.024;2024-01-07T10:10:40;15.50;;;8.73;;
22030;SDS011;11179;52.106;21.024;2024-01-07T10:13:06;16.63;;;9.52;;
22030;SDS011;11179;52.106;21.024;2024-01-07T10:15:33;16.05;;;8.57;;
22030;SDS011;11179;52.106;21.024;2024-01-07T10:18:03;17.30;;;7.90;;
22030;SDS011;11179;52.106;21.024;2024-01-07T10:20:30;14.23;;;7.72;;
22030;SDS011;11179;52.106;21.024;2024-01-07T10:22:57;15.38;;;7.68;;
22030;SDS011;11179;52.106;21.024;2024-01-07T10:25:22;16.03;;;8.07;;
22030;SDS011;11179;52.106;21.024;2024-01-07T10:27:48;12.27;;;6.70;;
22030;SDS011;11179;52.106;21.024;2024-01-07T10:30:15;14.80;;;7.53;;
22030;SDS011;11179;52.106;21.024;2024-01-07T10:32:41;11.32;;;5.25;;
22030;SDS011;11179;52.106;21.024;2024-01-07T10:35:07;14.75;;;7.55;;
22030;SDS011;11179;52.106;21.024;2024-01-07T10:37:38;13.95;;;7.38;;
22030;SDS011;11179;52.106;21.024;2024-01-07T10:40:04;11.45;;;5.47;;
22030;SDS011;11179;52.106;21.024;2024-01-07T10:42:33;16.02;;;7.60;;
22030;SDS011;11179;52.106;21.024;2024-01-07T10:45:01;12.05;;;6.85;;
22030;SDS011;11179;52.106;21.024;2024-01-07T10:47:29;13.75;;;7.38;;
22030;SDS011;11179;52.106;21.024;2024-01-07T10:49:59;16.13;;;8.10;;
22030;SDS011;11179;52.106;21.024;2024-01-07T10:52:27;11.77;;;5.72;;
22030;SDS011;11179;52.106;21.024;2024-01-07T10:54:53;14.33;;;7.70;;
22030;SDS011;11179;52.106;21.024;2024-01-07T10:57:28;12.75;;;7.00;;
22030;SDS011;11179;52.106;21.024;2024-01-07T11:00:00;14.50;;;7.55;;
22030;SDS011;11179;52.106;21.024;2024-01-07T11:02:32;16.50;;;8.02;;
22030;SDS011;11179;52.106;21.024;2024-01-07T11:07:39;11.55;;;7.60;;
22030;SDS011;11179;52.106;21.024;2024-01-07T11:12:56;11.80;;;6.68;;
22030;SDS011;11179;52.106;21.024;2024-01-07T11:18:19;11.70;;;5.85;;
22030;SDS011;11179;52.106;21.024;2024-01-07T11:20:46;13.50;;;6.07;;
22030;SDS011;11179;52.106;21.024;2024-01-07T11:23:28;12.65;;;6.60;;
22030;SDS011;11179;52.106;21.024;2024-01-07T11:26:06;10.52;;;6.60;;
22030;SDS011;11179;52.106;21.024;2024-01-07T11:28:53;14.68;;;7.63;;
22030;SDS011;11179;52.106;21.024;2024-01-07T11:31:42;13.40;;;7.18;;
22030;SDS011;11179;52.106;21.024;2024-01-07T11:34:08;13.15;;;6.50;;
22030;SDS011;11179;52.106;21.024;2024-01-07T11:36:37;12.00;;;7.00;;
22030;SDS011;11179;52.106;21.024;2024-01-07T11:39:03;15.50;;;7.35;;
22030;SDS011;11179;52.106;21.024;2024-01-07T11:41:34;14.40;;;7.57;;
22030;SDS011;11179;52.106;21.024;2024-01-07T11:44:01;14.60;;;7.63;;
22030;SDS011;11179;52.106;21.024;2024-01-07T11:46:27;14.10;;;7.60;;
22030;SDS011;11179;52.106;21.024;2024-01-07T11:48:54;15.73;;;8.10;;
22030;SDS011;11179;52.106;21.024;2024-01-07T11:51:30;11.55;;;5.03;;
22030;SDS011;11179;52.106;21.024;2024-01-07T11:53:56;12.27;;;7.00;;
22030;SDS011;11179;52.106;21.024;2024-01-07T11:56:22;12.20;;;6.88;;
22030;SDS011;11179;52.106;21.024;2024-01-07T11:58:49;12.98;;;6.72;;
22030;SDS011;11179;52.106;21.024;2024-01-07T12:01:15;18.53;;;8.50;;
22030;SDS011;11179;52.106;21.024;2024-01-07T12:03:42;14.38;;;7.40;;
22030;SDS011;11179;52.106;21.024;2024-01-07T12:06:08;12.98;;;6.80;;
22030;SDS011;11179;52.106;21.024;2024-01-07T12:08:38;13.05;;;7.15;;
22030;SDS011;11179;52.106;21.024;2024-01-07T12:11:04;11.90;;;7.43;;
22030;SDS011;11179;52.106;21.024;2024-01-07T12:13:30;12.45;;;7.35;;
22030;SDS011;11179;52.106;21.024;2024-01-07T12:15:56;15.13;;;7.75;;
22030;SDS011;11179;52.106;21.024;2024-01-07T12:18:22;17.00;;;8.77;;
22030;SDS011;11179;52.106;21.024;2024-01-07T12:20:56;14.63;;;8.60;;
22030;SDS011;11179;52.106;21.024;2024-01-07T12:23:23;14.55;;;8.48;;
22030;SDS011;11179;52.106;21.024;2024-01-07T12:25:48;16.20;;;8.37;;
22030;SDS011;11179;52.106;21.024;2024-01-07T12:28:14;20.80;;;9.40;;
22030;SDS011;11179;52.106;21.024;2024-01-07T12:30:42;17.50;;;8.50;;
22030;SDS011;11179;52.106;21.024;2024-01-07T12:33:07;17.40;;;9.77;;
22030;SDS011;11179;52.106;21.024;2024-01-07T12:35:33;15.83;;;8.50;;
22030;SDS011;11179;52.106;21.024;2024-01-07T12:37:59;18.20;;;9.27;;
22030;SDS011;11179;52.106;21.024;2024-01-07T12:40:25;20.33;;;9.70;;
22030;SDS011;11179;52.106;21.024;2024-01-07T12:42:52;16.80;;;8.85;;
22030;SDS011;11179;52.106;21.024;2024-01-07T12:45:17;19.20;;;9.63;;
22030;SDS011;11179;52.106;21.024;2024-01-07T12:47:43;15.20;;;8.60;;
22030;SDS011;11179;52.106;21.024;2024-01-07T12:50:09;18.70;;;10.37;;
22030;SDS011;11179;52.106;21.024;2024-01-07T12:52:39;16.23;;;9.05;;
22030;SDS011;11179;52.106;21.024;2024-01-07T12:55:05;16.55;;;8.73;;
22030;SDS011;11179;52.106;21.024;2024-01-07T12:57:31;17.88;;;9.02;;
22030;SDS011;11179;52.106;21.024;2024-01-07T12:59:57;16.80;;;9.70;;
22030;SDS011;11179;52.106;21.024;2024-01-07T13:02:22;17.13;;;9.33;;
22030;SDS011;11179;52.106;21.024;2024-01-07T13:04:48;15.52;;;9.02;;
22030;SDS011;11179;52.106;21.024;2024-01-07T13:07:16;14.57;;;7.88;;
22030;SDS011;11179;52.106;21.024;2024-01-07T13:09:41;14.07;;;8.03;;
22030;SDS011;11179;52.106;21.024;2024-01-07T13:12:07;16.23;;;7.90;;
22030;SDS011;11179;52.106;21.024;2024-01-07T13:14:32;15.70;;;8.33;;
22030;SDS011;11179;52.106;21.024;2024-01-07T13:16:58;15.73;;;8.80;;
22030;SDS011;11179;52.106;21.024;2024-01-07T13:19:23;19.80;;;9.03;;
22030;SDS011;11179;52.106;21.024;2024-01-07T13:21:49;14.32;;;8.52;;
22030;SDS011;11179;52.106;21.024;2024-01-07T13:24:15;14.93;;;8.00;;
22030;SDS011;11179;52.106;21.024;2024-01-07T13:26:41;16.10;;;8.67;;
22030;SDS011;11179;52.106;21.024;2024-01-07T13:29:07;13.07;;;5.70;;
22030;SDS011;11179;52.106;21.024;2024-01-07T13:31:32;14.80;;;7.50;;
22030;SDS011;11179;52.106;21.024;2024-01-07T13:33:58;14.50;;;7.93;;
22030;SDS011;11179;52.106;21.024;2024-01-07T13:36:23;16.53;;;7.73;;
22030;SDS011;11179;52.106;21.024;2024-01-07T13:38:48;16.70;;;8.97;;
22030;SDS011;11179;52.106;21.024;2024-01-07T13:41:15;19.00;;;8.43;;
22030;SDS011;11179;52.106;21.024;2024-01-07T13:43:41;15.45;;;7.75;;
22030;SDS011;11179;52.106;21.024;2024-01-07T13:46:07;19.00;;;8.10;;
22030;SDS011;11179;52.106;21.024;2024-01-07T13:48:33;15.25;;;8.50;;
22030;SDS011;11179;52.106;21.024;2024-01-07T13:50:59;15.90;;;7.70;;
22030;SDS011;11179;52.106;21.024;2024-01-07T13:53:25;14.90;;;8.07;;
22030;SDS011;11179;52.106;21.024;2024-01-07T13:55:50;19.50;;;8.70;;
22030;SDS011;11179;52.106;21.024;2024-01-07T13:58:16;19.03;;;10.20;;
22030;SDS011;11179;52.106;21.024;2024-01-07T14:00:41;14.70;;;8.40;;
22030;SDS011;11179;52.106;21.024;2024-01-07T14:03:06;17.93;;;9.23;;
22030;SDS011;11179;52.106;21.024;2024-01-07T14:05:32;15.73;;;8.60;;
22030;SDS011;11179;52.106;21.024;2024-01-07T14:07:57;15.03;;;7.00;;
22030;SDS011;11179;52.106;21.024;2024-01-07T14:10:22;16.90;;;8.00;;
22030;SDS011;11179;52.106;21.024;2024-01-07T14:12:48;15.23;;;8.07;;
22030;SDS011;11179;52.106;21.024;2024-01-07T14:15:13;20.70;;;9.37;;
22030;SDS011;11179;52.106;21.024;2024-01-07T14:17:38;17.37;;;8.83;;